Terminal Aerodrome Forecast
Issued by NWS

Current Version | Previous Version | Text Only | Print | Product List | Glossary On
Versions: 1 2 3 4 5 6 7 8 9 10 11 12 13
115
FTUS45 KGGW 262320
TAFSDY
TAF
KSDY 262320Z 2700/2724 30006KT P6SM SCT080
     FM270600 VRB03KT P6SM FEW090
     FM271500 13006KT P6SM BKN090=

USA.gov is the U.S. government's official web portal to all federal, state and local government web resources and services.